Time;durP1;ratioP1;P1;durP2;ratioP2;P2;SDS_P1;SDS_P2;PMS_P1;PMS_P2;Temp;Humidity;BMP_temperature;BMP_pressure;BME280_temperature;BME280_humidity;BME280_pressure;Samples;Min_cycle;Max_cycle;Signal;HPM_P1;HPM_P2
2022/04/03 00:01:28;;;;;;;;;20.00;15.00;;;;;4.33;100.00;101840.41;6297250;22;44660;-90
2022/04/03 00:03:54;;;;;;;;;20.67;15.33;;;;;4.39;100.00;101837.63;6296038;22;44819;-88
2022/04/03 00:06:20;;;;;;;;;20.00;18.33;;;;;4.39;100.00;101840.28;6324115;22;45508;-88
2022/04/03 00:08:45;;;;;;;;;26.00;26.00;;;;;4.39;100.00;101835.00;6296453;22;44770;-90
2022/04/03 00:11:11;;;;;;;;;17.67;14.67;;;;;4.41;100.00;101839.41;6324334;22;44856;-87
2022/04/03 00:13:40;;;;;;;;;18.67;15.00;;;;;4.35;100.00;101836.00;6294771;22;44873;-89
2022/04/03 00:16:06;;;;;;;;;23.33;23.00;;;;;4.34;100.00;101843.91;6321246;22;45259;-90
2022/04/03 00:18:32;;;;;;;;;20.33;17.67;;;;;4.36;100.00;101847.41;6318601;22;45111;-87
2022/04/03 00:20:58;;;;;;;;;14.00;12.00;;;;;4.24;100.00;101835.38;6328514;22;44669;-88
2022/04/03 00:23:24;;;;;;;;;25.67;20.67;;;;;4.19;100.00;101836.38;6314395;22;44792;-89
2022/04/03 00:25:53;;;;;;;;;18.33;17.00;;;;;4.17;100.00;101854.84;6287282;22;46581;-90
2022/04/03 00:28:20;;;;;;;;;22.67;15.67;;;;;4.11;100.00;101847.94;6286804;22;44760;-88
2022/04/03 00:30:46;;;;;;;;;23.33;19.67;;;;;4.07;100.00;101845.44;6287471;22;45124;-89
2022/04/03 00:33:12;;;;;;;;;13.00;13.00;;;;;4.06;100.00;101848.94;6284177;22;44826;-88
2022/04/03 00:35:39;;;;;;;;;24.33;20.33;;;;;4.02;100.00;101860.44;6284535;22;47173;-88
2022/04/03 00:38:06;;;;;;;;;23.33;23.33;;;;;3.94;100.00;101855.34;6285230;22;45112;-90
2022/04/03 00:40:31;;;;;;;;;22.33;20.00;;;;;3.89;100.00;101849.31;6317509;22;44697;-89
2022/04/03 00:42:58;;;;;;;;;25.00;19.33;;;;;3.93;100.00;101848.34;6288402;22;45505;-90
2022/04/03 00:45:23;;;;;;;;;21.00;21.00;;;;;3.92;100.00;101851.03;6317707;22;45407;-85
2022/04/03 00:47:52;;;;;;;;;19.67;18.33;;;;;3.90;100.00;101851.03;6309159;22;45295;-84
2022/04/03 00:50:18;;;;;;;;;18.33;18.00;;;;;3.94;100.00;101857.09;6315644;22;45313;-83
2022/04/03 00:52:44;;;;;;;;;20.67;17.33;;;;;3.92;100.00;101858.91;6312069;22;45428;-85
2022/04/03 00:55:09;;;;;;;;;24.67;20.67;;;;;3.88;100.00;101852.84;6278401;22;45366;-85
2022/04/03 00:57:35;;;;;;;;;15.67;14.00;;;;;3.80;100.00;101852.13;6305883;22;44679;-85
2022/04/03 01:00:01;;;;;;;;;20.33;19.67;;;;;3.84;100.00;101852.03;6280367;22;45012;-85
2022/04/03 01:02:27;;;;;;;;;19.00;16.67;;;;;3.83;100.00;101846.81;6309653;22;45333;-84
2022/04/03 01:04:52;;;;;;;;;23.33;18.67;;;;;3.82;100.00;101859.09;6282507;22;46852;-84
2022/04/03 01:07:19;;;;;;;;;19.33;17.33;;;;;3.85;100.00;101853.75;6309083;22;44751;-83
2022/04/03 01:09:44;;;;;;;;;18.00;17.00;;;;;3.84;100.00;101846.78;6309563;22;45250;-83
2022/04/03 01:12:10;;;;;;;;;20.67;17.33;;;;;3.89;100.00;101840.56;6309562;22;45351;-84
2022/04/03 01:14:41;;;;;;;;;30.33;25.33;;;;;3.85;100.00;101840.63;6281009;22;45010;-83
2022/04/03 01:17:08;;;;;;;;;14.00;13.00;;;;;3.89;100.00;101844.06;6308252;22;45338;-83
2022/04/03 01:19:33;;;;;;;;;28.00;25.67;;;;;3.90;100.00;101834.41;6285967;22;45408;-83
2022/04/03 01:22:00;;;;;;;;;21.67;19.67;;;;;3.92;100.00;101837.88;6320840;22;45257;-83
2022/04/03 01:24:26;;;;;;;;;16.00;14.33;;;;;3.92;100.00;101833.47;6315647;22;45079;-85
2022/04/03 01:26:52;;;;;;;;;25.33;22.00;;;;;3.89;100.00;101836.16;6292758;22;45165;-85
2022/04/03 01:29:18;;;;;;;;;18.67;15.67;;;;;3.85;100.00;101840.63;6312124;22;44681;-85
2022/04/03 01:31:45;;;;;;;;;18.00;18.00;;;;;3.81;100.00;101838.94;6280619;22;44836;-83
2022/04/03 01:34:11;;;;;;;;;19.67;16.67;;;;;3.77;100.00;101850.44;6313090;22;45197;-83
2022/04/03 01:36:36;;;;;;;;;33.67;27.00;;;;;3.73;100.00;101840.88;6281069;22;45191;-82
2022/04/03 01:39:03;;;;;;;;;14.00;12.33;;;;;3.71;100.00;101842.66;6307133;22;44774;-84
2022/04/03 01:41:28;;;;;;;;;26.33;25.33;;;;;3.71;100.00;101831.28;6306925;22;45312;-84
2022/04/03 01:43:54;;;;;;;;;27.00;23.67;;;;;3.71;100.00;101837.41;6311288;22;45108;-83
2022/04/03 01:46:19;;;;;;;;;21.00;19.33;;;;;3.73;100.00;101842.66;6283498;22;44811;-83
2022/04/03 01:48:45;;;;;;;;;25.00;20.33;;;;;3.75;100.00;101843.47;6309130;22;45163;-85
2022/04/03 01:51:10;;;;;;;;;13.00;13.00;;;;;3.73;100.00;101835.63;6305954;22;45339;-83
2022/04/03 01:53:36;;;;;;;;;13.67;13.67;;;;;3.78;100.00;101839.03;6306089;22;45093;-84
2022/04/03 01:56:04;;;;;;;;;20.33;20.33;;;;;3.69;100.00;101839.22;6307726;22;45317;-84
2022/04/03 01:58:30;;;;;;;;;19.67;18.33;;;;;3.70;100.00;101846.19;6313585;22;44629;-83
2022/04/03 02:00:56;;;;;;;;;19.00;17.33;;;;;3.69;100.00;101839.22;6313587;22;44795;-84
2022/04/03 02:03:22;;;;;;;;;17.00;15.00;;;;;3.69;100.00;101836.59;6308396;22;45385;-84
2022/04/03 02:05:48;;;;;;;;;18.67;17.33;;;;;3.71;100.00;101836.53;6304306;22;45263;-84
2022/04/03 02:08:13;;;;;;;;;16.00;13.00;;;;;3.75;100.00;101830.34;6306028;22;44693;-84
2022/04/03 02:10:39;;;;;;;;;26.00;19.00;;;;;3.77;100.00;101839.03;6306781;22;46061;-84
2022/04/03 02:13:05;;;;;;;;;20.67;18.67;;;;;3.78;100.00;101835.53;6307630;22;45114;-84
2022/04/03 02:15:32;;;;;;;;;14.33;12.00;;;;;3.75;100.00;101835.59;6308642;22;45416;-84
2022/04/03 02:17:57;;;;;;;;;23.33;22.00;;;;;3.78;100.00;101835.53;6308693;22;44824;-83
2022/04/03 02:20:22;;;;;;;;;14.67;14.00;;;;;3.72;100.00;101833.00;6280242;22;44900;-84
2022/04/03 02:22:48;;;;;;;;;25.33;20.00;;;;;3.71;100.00;101831.28;6309890;22;45015;-85
2022/04/03 02:25:13;;;;;;;;;16.67;16.67;;;;;3.74;100.00;101839.13;6312881;22;45127;-84
2022/04/03 02:27:43;;;;;;;;;24.33;18.33;;;;;3.73;100.00;101838.25;6312187;22;44673;-82
2022/04/03 02:30:10;;;;;;;;;20.00;18.00;;;;;3.75;100.00;101833.81;6286160;22;44868;-84
2022/04/03 02:32:40;;;;;;;;;22.33;14.33;;;;;3.77;100.00;101837.31;6312009;22;45150;-83
2022/04/03 02:35:08;;;;;;;;;20.00;16.67;;;;;3.74;100.00;101839.97;6311532;22;45378;-82
2022/04/03 02:37:35;;;;;;;;;21.33;17.67;;;;;3.73;100.00;101846.16;6285596;22;44753;-82
2022/04/03 02:40:02;;;;;;;;;22.00;20.00;;;;;3.74;100.00;101842.63;6280277;22;45212;-82
2022/04/03 02:42:28;;;;;;;;;20.67;19.67;;;;;3.74;100.00;101839.97;6279712;22;46777;-83
2022/04/03 02:44:53;;;;;;;;;18.33;18.33;;;;;3.73;100.00;101845.28;6308555;22;44727;-83
2022/04/03 02:47:20;;;;;;;;;13.33;12.67;;;;;3.64;100.00;101848.97;6313715;22;44790;-82
2022/04/03 02:49:45;;;;;;;;;13.00;13.00;;;;;3.62;100.00;101834.97;6316967;22;44778;-83
2022/04/03 02:52:11;;;;;;;;;14.67;13.33;;;;;3.61;100.00;101835.88;6284243;22;45822;-82
2022/04/03 02:54:37;;;;;;;;;20.33;16.67;;;;;3.61;100.00;101838.50;6308823;22;44760;-83
2022/04/03 02:57:03;;;;;;;;;22.33;17.67;;;;;3.63;100.00;101841.97;6309570;22;44813;-83
2022/04/03 02:59:29;;;;;;;;;17.67;17.67;;;;;3.66;100.00;101841.91;6306294;22;44900;-83
2022/04/03 03:01:54;;;;;;;;;16.33;14.33;;;;;3.67;100.00;101838.38;6307334;22;45361;-83
2022/04/03 03:04:20;;;;;;;;;27.67;23.00;;;;;3.68;100.00;101829.59;6307677;22;45366;-82
2022/04/03 03:06:45;;;;;;;;;24.33;23.00;;;;;3.70;100.00;101840.94;6306674;22;45509;-82
2022/04/03 03:09:11;;;;;;;;;24.00;18.67;;;;;3.72;100.00;101840.91;6307732;22;45516;-83
2022/04/03 03:11:36;;;;;;;;;14.33;13.00;;;;;3.69;100.00;101844.47;6308261;22;45153;-83
2022/04/03 03:14:02;;;;;;;;;16.33;16.33;;;;;3.58;100.00;101849.94;6282328;22;45206;-82
2022/04/03 03:16:27;;;;;;;;;27.67;23.00;;;;;3.60;100.00;101861.28;6309050;22;44907;-82
2022/04/03 03:18:52;;;;;;;;;8.33;7.00;;;;;3.60;100.00;101845.53;6308513;22;44824;-83
2022/04/03 03:21:18;;;;;;;;;19.00;17.67;;;;;3.49;100.00;101857.16;6306982;22;45262;-86
2022/04/03 03:23:43;;;;;;;;;14.67;11.67;;;;;3.48;100.00;101856.28;6279630;22;44809;-84
2022/04/03 03:26:08;;;;;;;;;22.00;20.33;;;;;3.47;100.00;101857.16;6278643;22;45097;-82
2022/04/03 03:28:34;;;;;;;;;23.33;19.00;;;;;3.46;100.00;101857.19;6307873;22;44698;-83
2022/04/03 03:31:00;;;;;;;;;23.33;19.33;;;;;3.46;100.00;101863.31;6313999;22;45405;-83
2022/04/03 03:33:25;;;;;;;;;24.67;20.33;;;;;3.43;100.00;101868.63;6310104;22;44743;-81
2022/04/03 03:35:50;;;;;;;;;19.33;17.33;;;;;3.38;100.00;101862.59;6312488;22;45029;-83
2022/04/03 03:38:16;;;;;;;;;21.33;18.33;;;;;3.43;100.00;101865.97;6282582;22;44829;-81
2022/04/03 03:40:41;;;;;;;;;6.33;6.33;;;;;3.42;100.00;101868.66;6307254;22;45444;-81
2022/04/03 03:43:09;;;;;;;;;18.00;18.00;;;;;3.39;100.00;101856.47;6307600;22;45375;-82
2022/04/03 03:45:35;;;;;;;;;25.67;24.33;;;;;3.44;100.00;101851.97;6309428;22;44713;-82
2022/04/03 03:48:01;;;;;;;;;20.33;20.33;;;;;3.46;100.00;101865.06;6310216;22;45560;-82
2022/04/03 03:50:26;;;;;;;;;15.67;14.00;;;;;3.44;100.00;101856.38;6309673;22;45108;-82
2022/04/03 03:52:51;;;;;;;;;18.00;15.33;;;;;3.45;100.00;101861.59;6309965;22;45238;-82
2022/04/03 03:55:17;;;;;;;;;17.33;15.00;;;;;3.47;100.00;101874.69;6308714;22;45311;-82
2022/04/03 03:57:46;;;;;;;;;15.33;15.33;;;;;3.47;100.00;101870.28;6309643;22;45265;-82
2022/04/03 04:00:13;;;;;;;;;20.33;18.33;;;;;3.40;100.00;101870.47;6309710;22;45471;-82
2022/04/03 04:02:39;;;;;;;;;24.33;17.67;;;;;3.35;100.00;101878.41;6284633;22;44705;-83
2022/04/03 04:05:06;;;;;;;;;28.00;24.67;;;;;3.35;100.00;101867.91;6313953;22;44737;-82
2022/04/03 04:07:43;;;;;;;;;20.00;18.33;;;;;3.38;100.00;101859.97;6314754;22;44763;-81
2022/04/03 04:10:12;;;;;;;;;15.33;12.67;;;;;3.38;100.00;101865.22;6317651;22;44960;-82
2022/04/03 04:12:39;;;;;;;;;23.00;19.33;;;;;3.37;100.00;101863.50;6313637;22;45301;-82
2022/04/03 04:15:05;;;;;;;;;17.00;15.33;;;;;3.37;100.00;101865.25;6316097;22;44675;-82
2022/04/03 04:17:52;;;;;;;;;15.00;15.00;;;;;3.36;100.00;101867.00;6313101;22;44765;-82
2022/04/03 04:20:18;;;;;;;;;21.67;16.67;;;;;3.35;100.00;101871.41;6313247;22;45237;-81
2022/04/03 04:22:46;;;;;;;;;19.00;19.00;;;;;3.35;100.00;101868.78;6313839;22;45381;-83
2022/04/03 04:25:13;;;;;;;;;21.67;19.00;;;;;3.35;100.00;101881.03;6316345;22;44866;-82
2022/04/03 04:27:39;;;;;;;;;20.33;18.33;;;;;3.32;100.00;101878.47;6314056;22;44804;-82
2022/04/03 04:30:07;;;;;;;;;15.33;13.67;;;;;3.27;100.00;101886.44;6316651;22;45113;-81
2022/04/03 04:32:33;;;;;;;;;18.67;18.00;;;;;3.29;100.00;101881.16;6315561;22;44664;-82
2022/04/03 04:34:58;;;;;;;;;13.00;11.33;;;;;3.25;100.00;101882.97;6316445;22;44643;-82
2022/04/03 04:37:24;;;;;;;;;14.00;14.00;;;;;3.18;100.00;101896.22;6293806;22;44880;-82
2022/04/03 04:39:49;;;;;;;;;20.33;19.33;;;;;3.13;100.00;101891.06;6317647;22;45036;-81
2022/04/03 04:42:14;;;;;;;;;16.33;16.00;;;;;3.03;100.00;101910.47;6314651;22;44745;-82
2022/04/03 04:44:40;;;;;;;;;15.67;11.00;;;;;3.06;100.00;101902.56;6310993;22;45155;-82
2022/04/03 04:47:06;;;;;;;;;16.33;16.33;;;;;3.03;100.00;101897.38;6309470;22;45336;-83
2022/04/03 04:49:31;;;;;;;;;19.00;11.00;;;;;2.96;100.00;101888.75;6281314;22;45027;-81
2022/04/03 04:51:57;;;;;;;;;14.67;14.00;;;;;2.92;100.00;101894.94;6308329;22;45298;-82
2022/04/03 04:54:25;;;;;;;;;9.67;7.00;;;;;2.90;100.00;101893.19;6308584;22;44702;-82
2022/04/03 04:56:50;;;;;;;;;14.33;14.33;;;;;2.88;100.00;101901.13;6306556;22;44813;-82
2022/04/03 04:59:17;;;;;;;;;21.00;14.33;;;;;2.81;100.00;101902.13;6306052;22;45230;-83
2022/04/03 05:01:42;;;;;;;;;13.33;13.33;;;;;2.75;100.00;101904.81;6307773;22;44697;-82
2022/04/03 05:04:08;;;;;;;;;17.00;13.67;;;;;2.71;100.00;101909.28;6308218;22;44766;-83
2022/04/03 05:06:34;;;;;;;;;14.67;14.67;;;;;2.68;100.00;101913.69;6308264;22;44835;-83
2022/04/03 05:09:01;;;;;;;;;11.67;8.33;;;;;2.63;100.00;101913.75;6304333;22;45408;-82
2022/04/03 05:11:27;;;;;;;;;13.33;7.67;;;;;2.61;100.00;101919.91;6304343;22;45312;-82
2022/04/03 05:13:53;;;;;;;;;15.00;14.67;;;;;2.60;100.00;101916.41;6277997;22;44740;-81
2022/04/03 05:16:19;;;;;;;;;17.67;16.33;;;;;2.50;100.00;101923.53;6305971;22;45321;-82
2022/04/03 05:18:46;;;;;;;;;16.33;14.00;;;;;2.47;100.00;101910.50;6276644;22;46630;-82
2022/04/03 05:21:11;;;;;;;;;18.33;17.67;;;;;2.42;100.00;101917.56;6306038;22;44783;-82
2022/04/03 05:23:38;;;;;;;;;16.67;12.67;;;;;2.39;100.00;101916.75;6308319;22;44846;-82
2022/04/03 05:26:05;;;;;;;;;19.33;15.67;;;;;2.29;100.00;101923.88;6279978;22;44880;-83
2022/04/03 05:28:30;;;;;;;;;21.33;18.00;;;;;2.23;100.00;101926.56;6281482;22;45106;-84
2022/04/03 05:30:56;;;;;;;;;20.67;16.67;;;;;2.19;100.00;101933.59;6278910;22;44941;-81
2022/04/03 05:33:22;;;;;;;;;19.33;12.67;;;;;2.13;100.00;101935.41;6308488;22;45294;-83
2022/04/03 05:35:48;;;;;;;;;17.33;15.00;;;;;2.12;100.00;101938.94;6308758;22;44737;-82
2022/04/03 05:38:15;;;;;;;;;15.33;15.00;;;;;2.11;100.00;101943.31;6313375;22;45166;-84
2022/04/03 05:40:40;;;;;;;;;15.67;15.67;;;;;2.10;100.00;101946.81;6310380;22;44749;-83
2022/04/03 05:43:06;;;;;;;;;17.00;17.00;;;;;2.12;100.00;101950.28;6313494;22;44699;-84
2022/04/03 05:45:32;;;;;;;;;7.67;7.67;;;;;2.15;100.00;101944.16;6316449;22;44864;-84
2022/04/03 05:47:57;;;;;;;;;22.00;21.00;;;;;2.14;100.00;101939.78;6285991;22;45323;-82
2022/04/03 05:50:23;;;;;;;;;13.33;13.33;;;;;2.14;100.00;101940.66;6307340;22;45309;-78
2022/04/03 05:52:51;;;;;;;;;12.67;12.67;;;;;2.20;100.00;101948.44;6309907;22;44764;-82
2022/04/03 05:55:19;;;;;;;;;22.00;16.00;;;;;2.30;100.00;101944.81;6311617;22;44771;-83
2022/04/03 05:57:46;;;;;;;;;15.67;15.33;;;;;2.39;100.00;101941.19;6307340;22;45502;-82
2022/04/03 06:00:13;;;;;;;;;23.67;19.67;;;;;2.47;100.00;101935.88;6278331;22;44709;-82
2022/04/03 06:02:54;;;;;;;;;12.33;11.33;;;;;2.51;100.00;101953.25;6307885;22;44630;-82
2022/04/03 06:05:31;;;;;;;;;14.33;14.33;;;;;2.52;100.00;101949.78;6305953;22;45348;-84
2022/04/03 06:07:57;;;;;;;;;14.33;13.67;;;;;2.58;100.00;101947.91;6306555;22;45225;-82
2022/04/03 06:10:24;;;;;;;;;19.00;19.00;;;;;2.66;100.00;101946.94;6307575;22;44791;-83
2022/04/03 06:13:00;;;;;;;;;18.33;13.00;;;;;2.72;100.00;101954.72;6306946;22;45273;-84
2022/04/03 06:15:28;;;;;;;;;17.67;13.00;;;;;2.83;100.00;101953.66;6280445;22;44687;-82
2022/04/03 06:17:55;;;;;;;;;7.33;7.33;;;;;3.00;100.00;101957.81;6309817;22;45200;-82
2022/04/03 06:20:21;;;;;;;;;22.00;17.33;;;;;3.14;100.00;101957.56;6309685;22;45440;-83
2022/04/03 06:22:46;;;;;;;;;14.33;14.00;;;;;3.29;100.00;101962.56;6283240;22;44820;-83
2022/04/03 06:25:12;;;;;;;;;16.33;16.33;;;;;3.48;100.00;101973.59;6307163;22;44779;-81
2022/04/03 06:27:38;;;;;;;;;18.67;15.33;;;;;3.64;100.00;101961.09;6305852;22;45309;-82
2022/04/03 06:30:04;;;;;;;;;21.33;21.00;;;;;3.73;100.00;101959.16;6306352;22;44810;-82
2022/04/03 06:32:29;;;;;;;;;13.67;10.00;;;;;3.75;100.00;101970.47;6307141;22;44852;-84
2022/04/03 06:34:56;;;;;;;;;17.33;16.00;;;;;3.75;100.00;101978.38;6306871;22;44698;-82
2022/04/03 06:37:21;;;;;;;;;21.33;21.33;;;;;3.72;100.00;101985.44;6306630;22;45283;-82
2022/04/03 06:39:46;;;;;;;;;17.00;17.00;;;;;3.63;100.00;101973.34;6279237;22;44825;-81
2022/04/03 06:42:12;;;;;;;;;17.33;16.00;;;;;3.64;100.00;101988.22;6307252;22;45178;-83
2022/04/03 06:44:39;;;;;;;;;17.67;16.00;;;;;3.70;100.00;101984.59;6309882;22;44890;-83
2022/04/03 06:47:05;;;;;;;;;19.00;18.00;;;;;3.47;100.00;101995.53;6308025;22;45277;-82
2022/04/03 06:49:32;;;;;;;;;19.00;19.00;;;;;3.42;100.00;101986.84;6310682;22;44796;-82
2022/04/03 06:51:57;;;;;;;;;24.33;19.67;;;;;3.55;100.00;101996.25;6320111;22;44586;-83
2022/04/03 06:54:23;;;;;;;;;19.67;16.67;;;;;3.46;100.00;101999.91;6324310;22;44830;-82
2022/04/03 06:56:51;;;;;;;;;16.33;16.33;;;;;3.20;100.00;102002.97;6317425;22;45134;-83
2022/04/03 06:59:17;;;;;;;;;12.67;12.00;;;;;3.31;100.00;101997.53;6287338;22;44960;-82
2022/04/03 07:01:43;;;;;;;;;17.67;16.00;;;;;3.36;100.00;102006.22;6286792;22;45318;-82
2022/04/03 07:04:08;;;;;;;;;16.00;13.00;;;;;3.42;100.00;102005.25;6308392;22;44819;-82
2022/04/03 07:06:33;;;;;;;;;28.00;26.33;;;;;3.46;100.00;102009.56;6309310;22;44919;-82
2022/04/03 07:08:59;;;;;;;;;17.00;15.67;;;;;3.52;100.00;102009.44;6312012;22;44770;-82
2022/04/03 07:11:24;;;;;;;;;20.33;19.00;;;;;3.40;100.00;102005.28;6309691;22;44802;-81
2022/04/03 07:13:50;;;;;;;;;20.67;19.67;;;;;3.35;100.00;102015.00;6307476;22;45265;-82
2022/04/03 07:16:15;;;;;;;;;17.67;13.67;;;;;3.43;100.00;102020.09;6307361;22;44981;-82
2022/04/03 07:18:41;;;;;;;;;9.00;9.00;;;;;3.51;100.00;102005.94;6306619;22;44711;-83
2022/04/03 07:21:07;;;;;;;;;10.00;7.67;;;;;3.44;100.00;102025.34;6306445;22;44679;-82
2022/04/03 07:23:32;;;;;;;;;14.67;13.33;;;;;3.47;100.00;102014.78;6279617;22;45584;-83
2022/04/03 07:25:57;;;;;;;;;19.00;19.00;;;;;3.56;100.00;102027.75;6307763;22;44956;-83
2022/04/03 07:28:23;;;;;;;;;19.00;15.33;;;;;3.48;100.00;102034.91;6289696;22;44702;-82
2022/04/03 07:30:51;;;;;;;;;20.67;16.67;;;;;3.49;100.00;102018.25;6316859;22;44704;-83
2022/04/03 07:33:20;;;;;;;;;14.67;14.00;;;;;3.50;100.00;102022.59;6318733;22;45202;-84
2022/04/03 07:35:47;;;;;;;;;19.33;17.67;;;;;3.61;100.00;102023.28;6309912;22;45225;-83
2022/04/03 07:38:12;;;;;;;;;18.00;15.00;;;;;3.70;100.00;102019.63;6309490;22;44760;-83
2022/04/03 07:40:38;;;;;;;;;24.33;20.33;;;;;3.72;100.00;102023.09;6310174;22;44677;-82
2022/04/03 07:43:03;;;;;;;;;19.67;17.67;;;;;3.73;100.00;102024.84;6279152;22;44783;-83
2022/04/03 07:45:29;;;;;;;;;12.00;10.33;;;;;3.82;100.00;102032.56;6306400;22;45435;-82
2022/04/03 07:47:54;;;;;;;;;14.33;13.67;;;;;3.93;100.00;102039.38;6314249;22;44800;-83
2022/04/03 07:50:20;;;;;;;;;9.00;6.00;;;;;3.91;100.00;102033.28;6280071;22;45214;-85
2022/04/03 07:52:47;;;;;;;;;22.67;21.00;;;;;4.01;100.00;102037.47;6308816;22;44997;-84
2022/04/03 07:55:12;;;;;;;;;25.67;24.33;;;;;4.08;100.00;102042.59;6313854;22;45356;-83
2022/04/03 07:57:39;;;;;;;;;12.00;10.33;;;;;4.13;100.00;102032.84;6285982;22;44774;-83
2022/04/03 08:00:10;;;;;;;;;13.67;13.67;;;;;4.18;100.00;102038.03;6313137;22;44783;-83
2022/04/03 08:02:37;;;;;;;;;14.00;13.00;;;;;4.21;100.00;102045.84;6309497;22;45286;-83
2022/04/03 08:05:03;;;;;;;;;6.00;4.00;;;;;4.27;100.00;102053.63;6308672;22;45154;-83
2022/04/03 08:07:45;;;;;;;;;14.00;12.33;;;;;4.27;100.00;102053.63;6279455;22;44760;-83
2022/04/03 08:10:15;;;;;;;;;19.33;14.33;;;;;4.39;100.00;102052.50;6309029;22;44775;-84
2022/04/03 08:12:42;;;;;;;;;19.00;15.00;;;;;4.44;100.00;102065.56;6308115;22;45543;-82
2022/04/03 08:15:10;;;;;;;;;18.00;17.67;;;;;4.47;100.00;102060.25;6308231;22;45104;-83
2022/04/03 08:17:40;;;;;;;;;19.00;15.00;;;;;4.56;100.00;102058.28;6310731;22;44581;-84
2022/04/03 08:20:08;;;;;;;;;13.67;13.00;;;;;4.64;100.00;102058.13;6310008;22;45395;-85
2022/04/03 08:22:35;;;;;;;;;11.67;11.67;;;;;4.62;100.00;102070.47;6307513;22;44899;-87
2022/04/03 08:25:01;;;;;;;;;19.00;12.00;;;;;4.63;100.00;102062.50;6279761;22;45461;-84
2022/04/03 08:28:02;;;;;;;;;15.33;14.67;;;;;4.71;100.00;102062.38;6279160;22;45178;-85
2022/04/03 08:30:33;;;;;;;;;12.00;10.67;;;;;4.81;100.00;102065.66;6307017;22;45096;-83
2022/04/03 08:33:01;;;;;;;;;16.00;16.00;;;;;4.99;100.00;102057.38;6278814;22;45266;-84
2022/04/03 08:35:28;;;;;;;;;20.67;17.33;;;;;5.14;100.00;102062.28;6306351;22;45205;-84
2022/04/03 08:37:55;;;;;;;;;11.67;11.67;;;;;5.20;100.00;102063.91;6307926;22;44745;-84
2022/04/03 08:40:23;;;;;;;;;16.67;12.67;;;;;5.50;99.17;102059.66;6308303;22;45150;-83
2022/04/03 08:42:54;;;;;;;;;10.33;10.33;;;;;5.71;94.97;102070.59;6280007;22;44852;-83
2022/04/03 08:45:20;;;;;;;;;13.00;12.67;;;;;5.57;95.48;102065.66;6308631;22;45098;-84
2022/04/03 08:47:53;;;;;;;;;9.00;8.00;;;;;5.56;96.47;102050.75;6313614;22;44766;-82
2022/04/03 08:50:23;;;;;;;;;9.33;9.33;;;;;5.59;94.36;102064.72;6294857;22;44645;-87
2022/04/03 08:52:51;;;;;;;;;13.33;10.00;;;;;5.77;94.31;102055.47;6288300;22;44750;-87
2022/04/03 08:55:18;;;;;;;;;16.00;12.33;;;;;5.85;93.61;102058.81;6316942;22;46514;-87
2022/04/03 08:57:44;;;;;;;;;11.67;8.67;;;;;5.80;89.87;102073.88;6289992;22;44721;-84
2022/04/03 09:00:11;;;;;;;;;10.00;9.00;;;;;5.99;90.86;102076.03;6317660;22;45179;-87
2022/04/03 09:02:36;;;;;;;;;16.33;12.00;;;;;6.14;91.50;102067.72;6319111;22;45280;-87
2022/04/03 09:05:04;;;;;;;;;15.67;12.00;;;;;6.08;90.08;102059.97;6314893;22;44964;-88
2022/04/03 09:07:30;;;;;;;;;12.67;9.00;;;;;6.21;91.17;102058.75;6281581;22;45190;-86
2022/04/03 09:09:57;;;;;;;;;12.33;11.67;;;;;6.23;88.30;102074.53;6285680;22;44671;-87
2022/04/03 09:12:23;;;;;;;;;6.67;5.00;;;;;6.19;86.37;102068.50;6287679;22;44640;-85
2022/04/03 09:14:54;;;;;;;;;11.00;8.00;;;;;6.22;85.28;102076.28;6282600;22;45137;-86
2022/04/03 09:17:38;;;;;;;;;13.33;13.33;;;;;6.18;85.43;102072.00;6277786;22;44809;-87
2022/04/03 09:20:09;;;;;;;;;10.00;6.33;;;;;6.23;85.23;102064.81;6275072;22;45341;-87
2022/04/03 09:22:37;;;;;;;;;10.00;10.00;;;;;6.32;84.07;102067.22;6272985;22;44998;-85
2022/04/03 09:25:07;;;;;;;;;16.00;14.33;;;;;6.41;83.48;102068.75;6278552;22;45304;-87
2022/04/03 09:27:45;;;;;;;;;14.00;11.67;;;;;6.46;84.84;102056.28;6278707;22;44787;-86
2022/04/03 09:30:11;;;;;;;;;17.67;15.00;;;;;6.38;82.68;102072.34;6283504;22;44594;-86
2022/04/03 09:32:46;;;;;;;;;18.00;13.00;;;;;6.52;86.09;102068.44;6286637;22;45179;-87
2022/04/03 09:35:12;;;;;;;;;11.00;11.00;;;;;6.61;79.46;102069.03;6284664;22;45602;-87
2022/04/03 09:37:37;;;;;;;;;11.67;9.67;;;;;6.63;76.56;102069.00;6286609;22;44880;-87
2022/04/03 09:40:03;;;;;;;;;9.00;7.50;;;;;6.74;71.88;102093.31;6279607;22;44986;-87
2022/04/03 09:42:30;;;;;;;;;22.67;21.33;;;;;6.68;71.50;102059.16;6276119;22;45315;-84
2022/04/03 09:44:55;;;;;;;;;13.33;10.33;;;;;6.82;65.19;102088.69;6273754;22;46455;-82
2022/04/03 09:47:32;;;;;;;;;14.67;13.67;;;;;6.66;61.58;102077.69;6274963;22;45169;-83
2022/04/03 09:50:03;;;;;;;;;8.67;6.00;;;;;6.68;60.25;102077.66;6274670;22;45269;-84
2022/04/03 09:52:40;;;;;;;;;3.25;3.25;;;;;6.79;54.64;102070.28;6274954;22;45335;-84
2022/04/03 09:55:14;;;;;;;;;2.75;2.75;;;;;6.84;52.52;102073.63;6272951;22;45286;-83
2022/04/03 09:57:40;;;;;;;;;4.00;1.00;;;;;6.89;53.16;102070.88;6274559;22;44839;-83
2022/04/03 10:00:07;;;;;;;;;4.67;4.67;;;;;6.99;53.01;102074.94;6274611;22;44733;-83
2022/04/03 10:02:33;;;;;;;;;5.00;3.33;;;;;7.06;53.46;102080.91;6273851;22;45365;-84
2022/04/03 10:04:58;;;;;;;;;7.33;6.00;;;;;7.09;52.93;102051.75;6276722;22;44935;-83
2022/04/03 10:07:24;;;;;;;;;11.33;9.33;;;;;6.87;48.60;102081.47;6305987;22;44833;-84
2022/04/03 10:09:52;;;;;;;;;8.00;5.00;;;;;6.82;52.81;102088.69;6309140;22;45150;-85
2022/04/03 10:12:20;;;;;;;;;2.50;2.50;;;;;6.68;49.76;102067.09;6309778;22;45244;-82
2022/04/03 10:14:49;;;;;;;;;2.50;1.00;;;;;6.86;49.95;102063.88;6319627;22;45024;-84
2022/04/03 10:17:15;;;;;;;;;4.00;2.00;;;;;6.99;49.05;102068.81;6316707;22;44583;-84
2022/04/03 10:19:42;;;;;;;;;1.00;1.00;;;;;7.10;51.14;102072.84;6311918;22;44799;-83
2022/04/03 10:22:16;;;;;;;;;9.00;6.33;;;;;7.29;51.28;102093.41;6308236;22;45247;-85
2022/04/03 10:24:46;;;;;;;;;9.00;6.33;;;;;7.06;52.08;102108.22;6311766;22;45271;-84
2022/04/03 10:27:19;;;;;;;;;3.00;3.00;;;;;7.04;51.24;102073.03;6313268;22;45174;-84
2022/04/03 10:29:48;;;;;;;;;2.25;2.25;;;;;7.18;55.32;102070.81;6311777;22;45340;-83
2022/04/03 10:32:24;;;;;;;;;3.00;3.00;;;;;7.52;54.03;102074.19;6308742;22;44824;-84
2022/04/03 10:34:52;;;;;;;;;7.00;4.00;;;;;7.61;54.78;102058.88;6280268;22;45504;-83
2022/04/03 10:37:29;;;;;;;;;2.00;2.00;;;;;7.68;51.92;102064.81;6279928;22;45272;-83
2022/04/03 10:40:00;;;;;;;;;3.25;2.50;;;;;7.73;52.05;102058.44;6306983;22;45439;-84
2022/04/03 10:42:26;;;;;;;;;0.50;0.50;;;;;7.69;56.43;102038.31;6309275;22;45175;-84
2022/04/03 10:45:13;;;;;;;;;3.75;3.75;;;;;7.50;50.96;102055.72;6309025;22;45403;-84
2022/04/03 10:47:41;;;;;;;;;8.33;5.00;;;;;7.42;54.78;102063.91;6309094;22;45261;-84
2022/04/03 10:50:08;;;;;;;;;6.00;4.00;;;;;7.69;54.86;102058.63;6282607;22;44790;-86
2022/04/03 10:52:42;;;;;;;;;2.00;2.00;;;;;7.61;53.37;102095.03;6313254;22;45270;-85
2022/04/03 10:55:35;;;;;;;;;4.00;4.00;;;;;7.41;52.59;102079.81;6314505;22;45459;-85
2022/04/03 10:58:06;;;;;;;;;2.50;1.25;;;;;7.41;53.59;102058.66;6310387;22;44724;-85
2022/04/03 11:00:38;;;;;;;;;6.00;3.00;;;;;7.52;51.31;102074.19;6313926;22;44693;-84
2022/04/03 11:03:19;;;;;;;;;6.00;4.25;;;;;7.44;54.10;102062.06;6282751;22;45419;-84
2022/04/03 11:05:47;;;;;;;;;5.75;4.50;;;;;7.69;52.59;102048.03;6308476;22;45073;-84
2022/04/03 11:08:13;;;;;;;;;6.50;5.00;;;;;7.70;54.54;102040.06;6280511;22;44742;-84
2022/04/03 11:10:52;;;;;;;;;3.25;3.25;;;;;7.42;54.52;102028.66;6289219;22;44892;-84
2022/04/03 11:13:42;;;;;;;;;5.33;5.33;;;;;7.33;55.83;102047.47;6319992;22;44733;-85
2022/04/03 11:16:12;;;;;;;;;2.33;2.33;;;;;7.20;51.99;102062.84;6288925;22;46874;-85